Ana Sayfa
METAR-TAF:

METAR-TAF

Havaalanları :

Saguache Municipal Airport

Saguache, Colorado, Amerika Birleşik Devletleri

Enlem: 38-05-50N, Boylam: 106-10-07W, yükseklik: 2385 m

Güncel hava durumu gözlemi

Rapor saat 00:14 UTC de 22 dakika önce yapıldı.
Sakin rüzgar
Sıcaklık 24°C
Nem 22%
Basınç 1023 hPa
Görüş mesafesi: 16.1 km
Açık gökyüzü

METAR: K04V 240014Z AUTO 00000KT 10SM CLR 24/01 A3021 RMK AO2 PWINO

Saat: 18:36 (00:36 UTC)


TAF: eksik

4.000'den fazla havaalanı için hava durumu gözlemleri ve tahminleri (METAR ve TAF raporları).

Kullanılabilir istasyonlar harita üzerinde sarı ve kırmızı noktalarla gösterilir.

İstasyonun adını görmek için fareyi noktanın üzerinde gezdirin.

Sonrasında hava gözlem ve tahminlerini görmek için tıklayın.

Haritayı değiştirmek için: yaklaştırmak için siyah artı işaretli yeşil düğmeye ve uzaklaştırmak için de eksi işaretli düğmeye hızla tıklayın; bitişik haritalar için yeşil okları kullanın.


METAR-TAF: